Time;durP1;ratioP1;P1;durP2;ratioP2;P2;SDS_P1;SDS_P2;PMS_P1;PMS_P2;Temp;Humidity;BMP_temperature;BMP_pressure;BME280_temperature;BME280_humidity;BME280_pressure;Samples;Min_cycle;Max_cycle;Signal;HPM_P1;HPM_P2
2021/12/02 06:20:51;;;;;;;61.10;26.40;;;;;;;20.11;50.89;96865.81;5057353;27;20410;-67
2021/12/02 06:23:17;;;;;;;71.00;28.23;;;;;;;19.86;52.31;96867.22;5054376;28;20051;-68
2021/12/02 06:25:45;;;;;;;76.40;27.38;;;;;;;19.82;52.63;96883.41;5056331;28;20037;-67
2021/12/02 06:28:10;;;;;;;74.35;30.55;;;;;;;19.80;52.29;96874.09;5066463;28;20043;-68
2021/12/02 06:30:36;;;;;;;80.72;26.88;;;;;;;19.78;52.54;96873.66;5045685;28;20033;-67
2021/12/02 06:33:01;;;;;;;77.35;28.85;;;;;;;19.86;52.58;96878.06;5029000;28;20036;-67
2021/12/02 06:35:28;;;;;;;57.03;24.75;;;;;;;19.80;52.46;96872.16;5049867;28;20033;-68
2021/12/02 06:37:53;;;;;;;67.68;25.00;;;;;;;19.87;52.76;96876.94;5048003;28;20029;-65
2021/12/02 06:40:19;;;;;;;67.82;25.60;;;;;;;19.89;52.62;96885.50;5047142;28;20072;-64
2021/12/02 06:42:44;;;;;;;56.95;23.13;;;;;;;19.81;52.14;96881.84;5052771;28;20033;-64
2021/12/02 06:45:11;;;;;;;53.25;21.08;;;;;;;19.77;52.07;96885.59;5047170;28;20123;-64
2021/12/02 06:47:41;;;;;;;56.10;20.95;;;;;;;19.75;52.09;96891.38;5046626;28;21065;-64
2021/12/02 06:50:15;;;;;;;53.45;20.15;;;;;;;19.76;52.37;96894.88;5046402;28;20048;-63
2021/12/02 06:52:41;;;;;;;58.42;24.02;;;;;;;19.78;52.58;96900.72;5046296;28;20393;-64
2021/12/02 06:55:07;;;;;;;47.92;19.95;;;;;;;19.76;52.96;96900.31;5046764;28;20028;-64
2021/12/02 06:57:32;;;;;;;58.22;21.00;;;;;;;19.82;52.97;96901.59;5053696;28;20485;-64
2021/12/02 07:00:03;;;;;;;52.28;20.30;;;;;;;19.84;52.54;96907.44;5054843;28;20029;-64
2021/12/02 07:02:30;;;;;;;56.05;20.50;;;;;;;19.82;53.04;96909.72;5047265;28;20044;-64
2021/12/02 07:04:57;;;;;;;51.40;19.90;;;;;;;19.80;53.02;96912.78;5031305;28;20496;-65
2021/12/02 07:07:23;;;;;;;53.65;20.45;;;;;;;19.80;52.84;96909.28;5044640;28;20132;-64
2021/12/02 07:09:49;;;;;;;49.92;18.95;;;;;;;19.77;52.84;96913.47;5046157;28;21422;-64
2021/12/02 07:12:14;;;;;;;43.25;19.50;;;;;;;19.79;53.18;96916.59;5044228;28;20036;-64
2021/12/02 07:14:42;;;;;;;49.47;20.00;;;;;;;19.79;52.96;96913.91;5049893;28;20035;-64
2021/12/02 07:17:08;;;;;;;46.88;19.83;;;;;;;19.78;52.69;96915.06;5047069;28;20029;-65
2021/12/02 07:19:38;;;;;;;41.50;17.13;;;;;;;19.78;53.00;96919.69;5047701;28;20342;-64
2021/12/02 07:22:03;;;;;;;41.25;16.65;;;;;;;19.86;54.36;96921.38;5043534;28;20397;-64
2021/12/02 07:24:28;;;;;;;59.63;17.52;;;;;;;19.87;54.35;96922.97;5040118;28;20040;-62
2021/12/02 07:26:54;;;;;;;46.85;17.00;;;;;;;19.86;54.71;96921.38;5046307;28;20031;-62
2021/12/02 07:29:19;;;;;;;50.45;17.33;;;;;;;19.85;54.51;96922.53;5051981;28;20039;-63
2021/12/02 07:31:44;;;;;;;47.80;15.30;;;;;;;19.93;54.75;96930.47;5037385;28;20370;-62
2021/12/02 07:34:10;;;;;;;45.72;17.13;;;;;;;19.90;53.73;96930.38;5030829;28;20120;-62
2021/12/02 07:36:36;;;;;;;39.80;14.40;;;;;;;19.92;53.88;96928.88;5024010;28;58052;-62
2021/12/02 07:39:08;;;;;;;41.17;15.02;;;;;;;19.92;54.33;96939.72;5015168;28;20057;-62
2021/12/02 07:41:34;;;;;;;45.53;15.82;;;;;;;19.93;53.89;96935.88;5013844;28;20060;-63
2021/12/02 07:43:59;;;;;;;42.05;15.90;;;;;;;19.99;54.46;96945.28;5015816;28;20033;-64
2021/12/02 07:46:25;;;;;;;43.75;15.23;;;;;;;19.96;53.90;96953.34;5013885;28;20044;-64
2021/12/02 07:48:52;;;;;;;37.30;15.32;;;;;;;19.87;54.03;96952.75;5013896;28;20117;-63
2021/12/02 07:51:17;;;;;;;39.03;15.38;;;;;;;19.79;53.83;96949.09;5014809;28;20044;-64
2021/12/02 07:53:45;;;;;;;50.47;17.42;;;;;;;19.87;54.32;96960.88;5013918;28;20033;-65
2021/12/02 07:56:13;;;;;;;34.88;14.68;;;;;;;19.91;54.19;96959.81;5014503;28;20557;-64
2021/12/02 07:58:42;;;;;;;41.78;14.77;;;;;;;19.92;54.00;96955.19;5015138;28;20156;-62
2021/12/02 08:01:09;;;;;;;29.95;12.00;;;;;;;19.71;53.65;96962.84;5015084;28;20694;-64
2021/12/02 08:03:34;;;;;;;23.00;9.68;;;;;;;19.60;53.78;96970.72;5016128;28;20478;-63
2021/12/02 08:06:00;;;;;;;29.05;10.45;;;;;;;19.55;53.88;96976.41;5014642;28;20047;-64
2021/12/02 08:08:25;;;;;;;34.53;10.90;;;;;;;19.54;53.80;96982.16;5014193;28;20029;-64
2021/12/02 08:10:50;;;;;;;24.27;9.30;;;;;;;19.47;53.84;96977.38;5014647;28;20512;-63
2021/12/02 08:13:16;;;;;;;29.23;10.57;;;;;;;19.48;54.21;96978.97;5016719;28;20041;-63
2021/12/02 08:15:42;;;;;;;24.13;10.10;;;;;;;19.46;54.26;96980.44;5013710;28;20916;-64
2021/12/02 08:18:09;;;;;;;24.60;9.70;;;;;;;19.47;54.08;96987.41;5013171;28;20037;-64
2021/12/02 08:20:35;;;;;;;30.52;9.88;;;;;;;19.33;53.90;96983.19;5013192;28;20083;-64
2021/12/02 08:23:00;;;;;;;25.85;10.27;;;;;;;19.47;54.41;96988.19;5014597;28;20060;-65
2021/12/02 08:25:27;;;;;;;23.88;8.48;;;;;;;19.49;51.94;96991.34;5014813;28;20473;-64
2021/12/02 08:27:55;;;;;;;22.85;8.70;;;;;;;19.55;53.23;96997.28;5013935;28;20050;-64
2021/12/02 08:30:26;;;;;;;22.35;8.70;;;;;;;19.71;54.47;97006.94;5017900;28;21035;-64
2021/12/02 08:32:52;;;;;;;30.83;11.55;;;;;;;19.80;54.18;96995.91;5019651;28;20038;-64
2021/12/02 08:35:18;;;;;;;28.45;10.85;;;;;;;19.85;54.35;96999.16;5013927;28;20033;-64
2021/12/02 08:37:45;;;;;;;24.92;11.65;;;;;;;19.90;53.96;97008.91;5004235;28;20041;-65
2021/12/02 08:40:17;;;;;;;30.73;11.00;;;;;;;19.93;54.22;97006.28;4999055;28;20327;-63
2021/12/02 08:42:43;;;;;;;27.67;11.05;;;;;;;19.95;53.97;97011.34;4993641;28;20088;-63
2021/12/02 08:45:09;;;;;;;26.77;11.35;;;;;;;19.94;54.30;97015.19;4992800;28;20022;-63
2021/12/02 08:47:35;;;;;;;24.00;10.43;;;;;;;19.94;54.61;97012.50;4990549;28;20750;-63
2021/12/02 08:50:01;;;;;;;24.52;10.88;;;;;;;19.93;54.71;97016.31;4992016;28;20060;-63
2021/12/02 08:52:28;;;;;;;25.05;10.02;;;;;;;19.96;54.39;97018.34;4991823;28;20121;-65
2021/12/02 08:54:54;;;;;;;24.83;9.90;;;;;;;20.01;54.58;97016.13;4991026;28;20030;-64
2021/12/02 08:57:22;;;;;;;21.92;10.50;;;;;;;20.00;54.76;97019.19;5008400;28;20069;-63
2021/12/02 08:59:49;;;;;;;26.40;11.45;;;;;;;20.08;55.36;97020.91;4993529;28;20026;-62
2021/12/02 09:02:15;;;;;;;30.45;10.45;;;;;;;20.04;55.79;97025.47;4991620;28;20030;-62
2021/12/02 09:04:41;;;;;;;22.67;9.50;;;;;;;20.07;56.34;97027.50;4997952;28;20115;-62
2021/12/02 09:07:07;;;;;;;21.58;9.82;;;;;;;20.10;56.58;97030.25;4992711;28;20137;-60
2021/12/02 09:09:33;;;;;;;24.23;9.68;;;;;;;20.17;56.49;97027.72;4992713;28;20026;-57
2021/12/02 09:11:59;;;;;;;22.92;8.88;;;;;;;19.88;55.67;97032.84;4990641;28;20042;-59
2021/12/02 09:14:25;;;;;;;26.88;9.98;;;;;;;20.02;56.12;97027.75;5000664;23;20042;-62
2021/12/02 09:16:51;;;;;;;23.63;9.32;;;;;;;20.06;56.10;97036.75;4975387;28;20472;-63
2021/12/02 09:19:18;;;;;;;21.75;10.35;;;;;;;20.13;56.34;97034.19;4978739;28;20126;-63
2021/12/02 09:21:43;;;;;;;23.23;9.00;;;;;;;20.16;55.85;97041.59;4971374;28;20038;-63
2021/12/02 09:24:11;;;;;;;23.13;8.90;;;;;;;20.15;56.14;97032.69;4976490;28;20104;-62
2021/12/02 09:26:36;;;;;;;22.75;9.30;;;;;;;20.18;56.19;97053.66;4975729;28;20036;-64
2021/12/02 09:29:02;;;;;;;21.55;8.93;;;;;;;20.22;56.26;97048.34;4975515;28;20034;-62
2021/12/02 09:31:27;;;;;;;22.85;9.52;;;;;;;20.19;56.18;97047.09;4985404;28;20026;-64
2021/12/02 09:33:52;;;;;;;22.40;7.88;;;;;;;20.19;56.04;97055.22;4978502;28;20042;-63
2021/12/02 09:36:19;;;;;;;21.48;8.38;;;;;;;20.20;55.63;97056.03;4976773;28;20038;-63
2021/12/02 09:38:45;;;;;;;18.20;8.52;;;;;;;20.22;55.61;97052.97;4974455;28;20512;-63
2021/12/02 09:41:11;;;;;;;20.52;8.40;;;;;;;20.22;55.93;97067.31;4974229;28;20179;-64
2021/12/02 09:43:37;;;;;;;16.25;7.90;;;;;;;20.22;55.86;97067.31;4978067;28;20117;-63
2021/12/02 09:46:02;;;;;;;18.10;8.05;;;;;;;20.22;56.28;97069.25;4976930;28;20038;-64
2021/12/02 09:48:29;;;;;;;21.02;8.98;;;;;;;20.22;55.78;97061.13;4975090;28;20034;-63
2021/12/02 09:51:12;;;;;;;17.35;6.75;;;;;;;20.22;55.60;97070.03;4973032;28;20034;-64
2021/12/02 09:54:05;;;;;;;19.50;8.05;;;;;;;20.21;56.03;97073.88;4975117;28;20034;-65
2021/12/02 09:56:29;;;;;;;;;;;;;;;20.16;55.96;97072.19;4975954;28;20132;-63
2021/12/02 09:59:01;;;;;;;17.15;6.75;;;;;;;20.22;56.00;97071.94;4975579;28;19972;-64
2021/12/02 10:01:37;;;;;;;20.00;7.82;;;;;;;20.24;55.75;97073.16;4974845;28;20609;-64
2021/12/02 10:04:04;;;;;;;11.80;6.40;;;;;;;20.25;55.80;97077.44;4986061;28;20396;-64
2021/12/02 10:06:31;;;;;;;22.63;8.07;;;;;;;20.26;55.45;97075.50;4990272;28;20508;-64
2021/12/02 10:09:09;;;;;;;16.38;6.38;;;;;;;20.24;55.72;97073.16;4998147;28;20063;-65
2021/12/02 10:11:44;;;;;;;15.80;6.72;;;;;;;20.25;55.63;97074.72;4981433;28;20047;-64
2021/12/02 10:14:19;;;;;;;16.55;7.05;;;;;;;20.22;55.84;97061.91;4975288;28;20061;-64
2021/12/02 10:16:45;;;;;;;13.88;6.72;;;;;;;20.23;55.60;97062.66;4974289;28;20042;-65
2021/12/02 10:19:13;;;;;;;14.30;5.97;;;;;;;20.24;55.58;97059.63;4987814;28;20068;-64
2021/12/02 10:22:07;;;;;;;19.35;6.45;;;;;;;20.23;55.71;97060.75;4975507;28;20034;-63
2021/12/02 10:24:28;;;;;;;13.57;6.07;;;;;;;20.23;55.81;97063.47;4979696;28;20104;-62
2021/12/02 10:27:01;;;;;;;12.23;6.30;;;;;;;20.25;55.35;97066.59;4974849;28;20037;-63
2021/12/02 10:29:38;;;;;;;9.52;5.22;;;;;;;20.24;55.83;97078.59;4974571;28;20057;-62
2021/12/02 10:32:21;;;;;;;12.60;5.88;;;;;;;20.24;55.41;97075.09;4977974;28;20042;-63
2021/12/02 10:34:51;;;;;;;14.75;5.55;;;;;;;20.25;55.41;97074.72;4973285;28;20065;-65
2021/12/02 10:37:19;;;;;;;9.73;4.90;;;;;;;20.29;55.67;97072.88;4975023;28;20717;-63
2021/12/02 10:40:06;;;;;;;13.43;5.30;;;;;;;20.34;55.42;97078.03;4973531;28;20035;-65
2021/12/02 11:24:30;;;;;;;2.88;2.40;;;;;;;4.56;74.81;97103.19;6190100;23;20043;-80
2021/12/02 11:27:19;;;;;;;3.08;2.78;;;;;;;4.57;75.09;97127.78;6185108;23;20439;-80
2021/12/02 11:29:56;;;;;;;5.28;2.90;;;;;;;4.41;75.98;97123.44;6187001;23;20115;-79
2021/12/02 11:32:39;;;;;;;3.30;2.35;;;;;;;4.27;76.13;97130.16;6185692;23;20012;-80
2021/12/02 11:35:12;;;;;;;3.20;2.50;;;;;;;4.17;76.56;97136.13;6188683;23;20395;-80
2021/12/02 11:37:40;;;;;;;2.95;2.53;;;;;;;4.10;76.58;97138.19;6211190;23;20028;-80
2021/12/02 11:40:13;;;;;;;3.70;2.92;;;;;;;3.90;77.13;97123.97;6187342;23;20001;-80
2021/12/02 11:42:39;;;;;;;5.55;2.70;;;;;;;3.94;76.87;97148.81;6188250;23;20443;-80
2021/12/02 11:45:07;;;;;;;6.07;3.28;;;;;;;3.88;77.01;97140.06;6184666;23;20014;-80
2021/12/02 11:47:33;;;;;;;2.78;2.58;;;;;;;3.78;76.97;97132.03;6208361;23;20468;-80
2021/12/02 11:49:58;;;;;;;4.57;2.85;;;;;;;3.79;77.44;97147.63;6185220;23;20302;-80
2021/12/02 11:52:24;;;;;;;3.85;2.90;;;;;;;3.72;77.17;97127.75;6186877;23;20091;-80
2021/12/02 11:54:50;;;;;;;3.03;2.72;;;;;;;3.75;77.93;97143.09;6185392;23;20009;-80
2021/12/02 11:57:17;;;;;;;6.30;3.03;;;;;;;3.72;77.57;97147.00;6179099;23;20013;-80
2021/12/02 11:59:43;;;;;;;3.00;2.80;;;;;;;3.69;77.66;97150.13;6179994;23;20035;-81
2021/12/02 12:02:09;;;;;;;4.80;3.20;;;;;;;3.48;78.19;97119.28;6180510;23;20009;-80
2021/12/02 12:04:38;;;;;;;18.45;4.38;;;;;;;3.63;78.46;97143.22;6178563;23;20471;-80
2021/12/02 12:07:15;;;;;;;14.57;4.25;;;;;;;3.46;78.22;97120.56;6177313;23;20045;-80
2021/12/02 12:09:41;;;;;;;;;;;;;;;3.58;77.77;97140.50;6180809;23;19997;-80
2021/12/02 12:12:07;;;;;;;5.60;3.15;;;;;;;3.53;78.38;97139.66;6184883;23;19912;-80
2021/12/02 12:14:41;;;;;;;5.32;2.47;;;;;;;3.51;79.05;97142.53;6179392;23;20001;-80
2021/12/02 12:17:13;;;;;;;5.25;2.65;;;;;;;3.58;79.02;97142.38;6179377;23;20418;-81
2021/12/02 12:19:52;;;;;;;6.43;3.35;;;;;;;3.52;79.53;97140.69;6179475;23;20009;-81
2021/12/02 12:22:29;;;;;;;5.85;3.90;;;;;;;3.56;79.21;97152.38;6181263;23;20001;-81
2021/12/02 12:25:00;;;;;;;4.10;3.35;;;;;;;3.52;79.70;97145.97;6180880;23;20272;-81
2021/12/02 12:27:36;;;;;;;6.20;3.55;;;;;;;3.60;79.42;97156.88;6161534;23;20080;-81
2021/12/02 12:30:12;;;;;;;7.15;4.13;;;;;;;3.60;80.20;97150.81;6183512;23;20095;-80
2021/12/02 12:35:59;;;;;;;4.38;3.78;;;;;;;3.61;80.55;97163.75;6147732;23;20009;-81
2021/12/02 12:38:32;;;;;;;5.32;3.45;;;;;;;3.36;80.31;97128.38;6204505;23;20012;-80
2021/12/02 12:41:10;;;;;;;6.00;3.60;;;;;;;3.70;80.15;97166.75;6179856;23;20005;-81
2021/12/02 12:43:39;;;;;;;8.43;3.25;;;;;;;3.73;80.13;97171.56;6179511;23;20385;-81
2021/12/02 12:46:11;;;;;;;4.03;3.30;;;;;;;3.76;80.82;97161.31;6180695;23;20458;-81
2021/12/02 12:48:37;;;;;;;9.18;3.40;;;;;;;3.64;80.98;97150.09;6179610;23;20452;-80
2021/12/02 12:51:13;;;;;;;7.03;3.75;;;;;;;3.78;81.06;97171.59;6180760;23;20076;-81
2021/12/02 12:53:43;;;;;;;8.57;3.83;;;;;;;3.79;80.70;97171.38;6180993;23;19997;-82
2021/12/02 12:56:14;;;;;;;7.55;3.03;;;;;;;3.82;80.66;97177.19;6208177;23;20341;-81
2021/12/02 12:58:57;;;;;;;5.68;3.40;;;;;;;3.83;80.72;97186.69;6153213;23;20098;-81
2021/12/02 13:01:26;;;;;;;5.07;3.83;;;;;;;3.83;81.06;97191.97;6177016;23;20019;-81
2021/12/02 13:04:06;;;;;;;6.93;3.50;;;;;;;3.83;80.81;97197.25;6181483;23;20009;-80
2021/12/02 13:06:48;;;;;;;4.50;3.03;;;;;;;3.74;80.17;97194.25;6181901;23;20001;-81
2021/12/02 13:12:21;;;;;;;2.83;2.50;;;;;;;3.56;79.71;97178.75;6176186;23;20020;-81
2021/12/02 13:14:50;;;;;;;3.22;2.20;;;;;;;3.66;79.61;97207.88;6179034;23;20020;-80
2021/12/02 13:17:34;;;;;;;4.60;2.58;;;;;;;3.63;79.06;97205.72;6178936;23;20001;-81
2021/12/02 13:19:59;;;;;;;8.15;2.70;;;;;;;3.61;79.15;97205.97;6180430;23;20012;-81
2021/12/02 13:22:26;;;;;;;7.78;2.38;;;;;;;3.60;79.52;97214.13;6181995;23;20558;-80
2021/12/02 13:24:54;;;;;;;3.97;1.95;;;;;;;3.48;79.62;97205.50;6180978;23;20066;-80
2021/12/02 13:27:22;;;;;;;2.13;1.92;;;;;;;3.47;79.81;97207.34;6181996;23;20005;-82
2021/12/02 13:29:47;;;;;;;2.30;2.10;;;;;;;3.58;79.48;97216.22;6188101;23;20016;-81
2021/12/02 13:32:12;;;;;;;2.22;2.03;;;;;;;3.50;79.74;97198.97;6186557;23;20009;-81
2021/12/02 13:34:38;;;;;;;2.42;2.00;;;;;;;3.39;79.79;97185.88;6181073;23;20009;-82
2021/12/02 13:37:09;;;;;;;2.42;2.20;;;;;;;3.60;79.75;97222.81;6181141;23;20044;-82
2021/12/02 13:39:37;;;;;;;2.47;2.17;;;;;;;3.61;80.20;97221.78;6183209;23;20013;-81
2021/12/02 13:42:15;;;;;;;4.07;2.38;;;;;;;3.55;80.28;97221.97;6178666;23;20024;-81
2021/12/02 13:44:50;;;;;;;2.15;1.90;;;;;;;3.61;80.02;97239.44;6181500;23;20015;-82
2021/12/02 13:47:27;;;;;;;7.85;2.67;;;;;;;3.45;80.45;97227.88;6207613;23;20029;-82
2021/12/02 13:50:03;;;;;;;3.40;2.28;;;;;;;3.63;80.25;97254.00;6182526;23;20383;-83
2021/12/02 13:52:36;;;;;;;5.93;2.40;;;;;;;3.51;79.89;97247.25;6182193;23;20039;-83
2021/12/02 13:55:14;;;;;;;2.80;2.60;;;;;;;3.60;80.03;97254.47;6182832;23;20024;-83
2021/12/02 13:57:47;;;;;;;2.88;2.60;;;;;;;3.60;80.12;97258.97;6204729;23;20371;-81
2021/12/02 14:00:22;;;;;;;3.25;2.38;;;;;;;3.50;80.05;97245.63;6181065;23;20035;-81
2021/12/02 14:02:50;;;;;;;4.50;2.13;;;;;;;3.51;80.50;97249.88;6178831;23;20264;-82
2021/12/02 14:05:18;;;;;;;4.40;2.10;;;;;;;3.58;80.77;97261.84;6180291;23;20056;-81
2021/12/02 14:07:46;;;;;;;2.17;1.95;;;;;;;3.46;79.97;97244.50;6180521;23;20440;-82
2021/12/02 14:10:16;;;;;;;3.65;2.35;;;;;;;3.44;79.94;97236.06;6179689;23;20011;-82
2021/12/02 14:12:52;;;;;;;3.03;2.53;;;;;;;3.58;80.49;97255.78;6177832;23;20026;-82
2021/12/02 14:15:36;;;;;;;3.05;1.85;;;;;;;3.57;80.26;97254.16;6180107;23;20079;-82
2021/12/02 14:18:07;;;;;;;2.95;2.72;;;;;;;3.57;80.48;97248.91;6177365;23;20009;-82
2021/12/02 14:20:52;;;;;;;2.38;1.83;;;;;;;3.56;80.14;97260.50;6179505;23;20055;-82
2021/12/02 14:23:40;;;;;;;4.70;2.20;;;;;;;3.26;79.87;97212.56;6180877;23;20135;-83
2021/12/02 14:26:34;;;;;;;4.07;2.15;;;;;;;3.53;80.20;97267.06;6184251;23;20008;-81
2021/12/02 14:29:02;;;;;;;2.95;2.50;;;;;;;3.41;80.50;97268.97;6173364;23;20013;-81
2021/12/02 14:31:38;;;;;;;5.10;2.72;;;;;;;3.48;80.37;97284.63;6128609;23;20096;-81
2021/12/02 14:34:16;;;;;;;4.10;2.75;;;;;;;3.48;80.22;97293.34;6179528;23;20005;-82
2021/12/02 14:36:44;;;;;;;11.82;2.78;;;;;;;3.47;79.84;97291.72;6153687;23;20059;-82
2021/12/02 14:39:12;;;;;;;2.80;2.10;;;;;;;3.46;80.29;97286.72;6152943;23;20020;-82
2021/12/02 14:41:44;;;;;;;3.38;2.65;;;;;;;3.42;80.46;97294.31;6180308;23;20009;-82
2021/12/02 14:44:21;;;;;;;4.53;2.67;;;;;;;3.42;80.70;97296.16;6182821;23;20076;-81
2021/12/02 14:46:52;;;;;;;8.35;2.55;;;;;;;3.41;80.58;97308.53;6179881;23;20009;-81
2021/12/02 14:49:28;;;;;;;2.75;2.55;;;;;;;3.43;80.54;97308.31;6186156;23;20435;-81
2021/12/02 14:51:59;;;;;;;6.97;2.72;;;;;;;3.41;80.63;97320.91;6159892;23;20009;-80
2021/12/02 14:54:50;;;;;;;6.20;3.40;;;;;;;3.31;81.20;97315.47;6186813;23;20024;-81
2021/12/02 14:57:28;;;;;;;8.20;4.15;;;;;;;3.31;80.43;97321.56;6187057;23;20008;-81
2021/12/02 14:59:59;;;;;;;7.65;3.55;;;;;;;3.34;80.74;97338.75;6185005;23;20001;-80
2021/12/02 15:02:28;;;;;;;6.05;4.03;;;;;;;3.34;81.43;97336.88;6160271;23;20436;-81
2021/12/02 15:04:59;;;;;;;6.68;4.13;;;;;;;3.25;81.48;97324.34;6159673;23;20012;-81
2021/12/02 15:07:31;;;;;;;6.18;4.10;;;;;;;3.33;81.44;97342.41;6185496;23;20478;-81
2021/12/02 15:10:21;;;;;;;6.82;4.32;;;;;;;3.33;81.25;97356.41;6158868;23;20455;-81
2021/12/02 15:12:51;;;;;;;6.95;4.70;;;;;;;3.31;81.06;97355.03;6188196;23;20012;-81
2021/12/02 15:15:18;;;;;;;9.68;5.32;;;;;;;3.34;81.74;97373.81;6140533;23;20502;-82
2021/12/02 15:17:48;;;;;;;6.93;4.68;;;;;;;3.34;81.59;97368.53;6189163;23;20009;-82
2021/12/02 15:20:24;;;;;;;5.30;4.35;;;;;;;3.34;81.24;97379.06;6187366;23;20017;-81
2021/12/02 15:22:57;;;;;;;12.65;7.60;;;;;;;3.34;81.77;97379.06;6161953;23;20082;-82
2021/12/02 15:25:43;;;;;;;28.58;16.25;;;;;;;3.29;81.63;97376.38;6186825;23;20028;-81
2021/12/02 15:28:22;;;;;;;17.52;13.95;;;;;;;3.34;81.73;97384.34;6186737;23;20455;-81
2021/12/02 15:31:00;;;;;;;19.88;17.85;;;;;;;3.34;80.89;97396.75;6181326;23;20088;-81
2021/12/02 15:33:31;;;;;;;13.05;11.63;;;;;;;3.30;81.63;97403.53;6191432;23;20004;-80
2021/12/02 15:36:01;;;;;;;11.32;10.20;;;;;;;3.31;81.42;97413.03;6194733;23;20005;-81
2021/12/02 15:38:27;;;;;;;10.77;9.10;;;;;;;3.30;81.02;97414.88;6192409;23;20009;-81
2021/12/02 15:40:54;;;;;;;10.95;8.95;;;;;;;3.24;80.90;97410.56;6194437;23;20005;-81
2021/12/02 15:43:25;;;;;;;9.73;8.73;;;;;;;3.31;81.10;97421.75;6193261;23;20037;-81
2021/12/02 15:45:56;;;;;;;8.85;6.82;;;;;;;3.24;81.14;97430.84;6192260;23;20075;-80
2021/12/02 15:48:21;;;;;;;8.52;5.90;;;;;;;3.16;80.97;97433.84;6189509;23;20012;-81
2021/12/02 15:50:47;;;;;;;10.30;7.07;;;;;;;3.17;80.92;97436.25;6187169;23;20036;-80
2021/12/02 15:53:14;;;;;;;8.30;6.80;;;;;;;3.17;81.18;97446.00;6187161;23;20066;-80
2021/12/02 15:55:46;;;;;;;9.52;6.40;;;;;;;3.14;80.77;97447.28;6186880;23;20453;-80
2021/12/02 15:58:14;;;;;;;8.80;6.40;;;;;;;3.02;80.52;97428.06;6188371;23;20012;-79
2021/12/02 16:00:47;;;;;;;6.10;5.50;;;;;;;3.16;80.51;97453.13;6188941;23;20083;-78
2021/12/02 16:03:24;;;;;;;8.88;5.45;;;;;;;3.08;81.18;97463.22;6188586;23;20072;-78
2021/12/02 16:13:26;;;;;;;7.30;5.45;;;;;;;3.01;81.30;97468.66;6199279;23;20009;-79
2021/12/02 16:15:52;;;;;;;5.43;4.63;;;;;;;3.08;80.59;97473.78;6188867;23;20060;-79
2021/12/02 16:18:17;;;;;;;7.13;5.13;;;;;;;3.12;80.70;97494.16;6188503;23;20076;-80
2021/12/02 16:20:42;;;;;;;4.47;4.05;;;;;;;3.10;80.81;97498.06;6187264;23;20062;-79
2021/12/02 16:23:09;;;;;;;5.63;4.88;;;;;;;2.90;81.44;97480.81;6188816;23;20009;-79
2021/12/02 16:25:34;;;;;;;6.43;5.03;;;;;;;3.07;80.89;97516.97;6189540;23;20009;-79
2021/12/02 16:28:01;;;;;;;11.05;6.10;;;;;;;3.08;81.03;97515.94;6188937;23;20012;-79
2021/12/02 16:30:31;;;;;;;8.45;5.78;;;;;;;2.92;81.47;97502.47;6188747;23;20096;-79
2021/12/02 16:32:57;;;;;;;6.53;5.22;;;;;;;3.04;81.24;97526.94;6186777;23;20024;-79
2021/12/02 16:35:24;;;;;;;6.80;6.15;;;;;;;3.04;80.85;97531.41;6188308;23;20005;-79
2021/12/02 16:37:49;;;;;;;7.03;6.25;;;;;;;2.92;80.88;97526.19;6138160;23;20008;-79
2021/12/02 16:40:32;;;;;;;8.73;5.97;;;;;;;2.88;81.57;97511.84;6185526;23;20012;-79
2021/12/02 16:43:01;;;;;;;5.70;5.10;;;;;;;3.02;81.76;97544.81;6182219;23;20011;-80
2021/12/02 16:45:36;;;;;;;6.93;5.25;;;;;;;3.02;81.61;97550.09;6184281;23;20009;-80
2021/12/02 16:48:03;;;;;;;7.15;5.45;;;;;;;3.07;80.67;97549.41;6159518;23;20447;-79
2021/12/02 16:50:29;;;;;;;5.35;4.85;;;;;;;3.04;81.29;97560.41;6186700;23;20043;-80
2021/12/02 16:52:57;;;;;;;12.90;4.93;;;;;;;3.01;80.90;97569.56;6186569;23;20448;-80
2021/12/02 16:55:26;;;;;;;4.65;4.22;;;;;;;3.02;81.04;97559.84;6190112;23;20016;-80
2021/12/02 16:57:54;;;;;;;7.35;4.18;;;;;;;2.96;80.99;97551.03;6106708;23;20013;-79
2021/12/02 17:00:24;;;;;;;4.50;3.85;;;;;;;3.07;81.28;97572.31;6181100;23;20013;-79
2021/12/02 17:02:49;;;;;;;5.95;4.57;;;;;;;2.81;81.02;97542.00;6154449;23;20593;-79
2021/12/02 17:05:15;;;;;;;5.80;3.85;;;;;;;3.07;81.46;97575.75;6182481;23;20079;-79
2021/12/02 17:07:40;;;;;;;4.55;4.03;;;;;;;3.09;80.90;97583.44;6155516;23;20071;-80
2021/12/02 17:10:10;;;;;;;6.68;4.13;;;;;;;3.04;80.83;97578.84;6157992;23;20031;-80
2021/12/02 17:12:36;;;;;;;4.95;3.88;;;;;;;3.07;81.09;97582.88;6184187;23;20001;-81
2021/12/02 17:15:04;;;;;;;4.10;3.70;;;;;;;3.00;81.05;97575.06;6181253;23;20044;-79
2021/12/02 17:17:30;;;;;;;4.03;3.60;;;;;;;2.90;81.32;97561.69;6184289;23;20068;-80
2021/12/02 17:19:56;;;;;;;4.10;3.15;;;;;;;3.03;81.56;97583.34;6136093;23;20321;-80
2021/12/02 17:22:24;;;;;;;3.88;3.47;;;;;;;3.03;81.47;97590.44;6185753;23;20450;-80
2021/12/02 17:24:50;;;;;;;4.10;3.78;;;;;;;2.84;81.56;97567.91;6183900;23;20059;-80
2021/12/02 17:27:16;;;;;;;3.55;2.75;;;;;;;2.94;81.39;97592.63;6161449;23;20025;-80
2021/12/02 17:29:42;;;;;;;3.95;3.15;;;;;;;2.91;81.57;97593.06;6164810;23;20036;-80
2021/12/02 17:32:10;;;;;;;5.03;3.53;;;;;;;3.03;81.68;97601.78;6184113;23;20731;-80
2021/12/02 17:34:37;;;;;;;4.28;3.30;;;;;;;3.00;81.49;97604.06;6184549;23;20005;-81
2021/12/02 17:37:03;;;;;;;3.25;2.83;;;;;;;3.03;80.76;97608.88;6158676;23;20023;-80
2021/12/02 17:39:29;;;;;;;6.63;2.95;;;;;;;2.90;81.09;97603.84;6184824;23;20016;-80
2021/12/02 17:41:59;;;;;;;3.90;3.30;;;;;;;2.89;81.52;97616.22;6182296;23;20013;-80
2021/12/02 17:44:25;;;;;;;4.10;2.72;;;;;;;2.97;80.95;97633.53;6158505;23;20511;-81
2021/12/02 17:46:52;;;;;;;4.53;3.10;;;;;;;2.98;81.02;97638.56;6159060;23;20082;-81
2021/12/02 17:49:19;;;;;;;4.90;2.88;;;;;;;2.99;80.79;97642.78;6183949;23;20011;-80
2021/12/02 17:51:46;;;;;;;2.78;2.47;;;;;;;2.98;81.07;97646.47;6186349;23;20005;-81
2021/12/02 17:54:15;;;;;;;3.25;2.95;;;;;;;2.91;81.14;97650.25;6187657;23;20020;-81
2021/12/02 17:56:43;;;;;;;4.18;2.88;;;;;;;2.81;81.19;97632.38;6195545;23;20005;-80
2021/12/02 17:59:09;;;;;;;5.53;2.83;;;;;;;2.79;80.79;97639.72;6187390;23;20023;-81
2021/12/02 18:01:34;;;;;;;5.78;3.55;;;;;;;2.93;81.12;97662.16;6187566;23;20013;-80
2021/12/02 18:04:01;;;;;;;6.38;3.60;;;;;;;2.89;80.89;97660.22;6183027;23;20443;-81
2021/12/02 18:06:27;;;;;;;5.57;4.03;;;;;;;2.87;80.86;97668.34;6185902;23;20008;-81
2021/12/02 18:08:52;;;;;;;7.65;4.78;;;;;;;2.89;80.38;97658.38;6181551;23;20092;-79
2021/12/02 18:11:18;;;;;;;8.45;4.50;;;;;;;2.91;80.44;97668.69;6188471;23;20009;-80
2021/12/02 18:13:44;;;;;;;6.35;4.97;;;;;;;2.94;80.45;97681.41;6185881;23;20001;-80
2021/12/02 18:16:09;;;;;;;4.60;4.10;;;;;;;2.74;80.63;97667.75;6185382;23;20093;-80
2021/12/02 18:18:35;;;;;;;4.22;3.83;;;;;;;2.83;80.87;97685.66;6185442;23;20013;-83
2021/12/02 18:21:01;;;;;;;6.65;4.88;;;;;;;2.85;80.69;97690.69;6212713;23;20575;-83
2021/12/02 18:23:27;;;;;;;5.65;4.13;;;;;;;2.85;80.58;97683.59;6161029;23;20044;-83
2021/12/02 18:25:55;;;;;;;7.05;4.25;;;;;;;2.83;80.65;97692.75;6210182;23;20032;-83
2021/12/02 18:28:21;;;;;;;6.15;4.07;;;;;;;2.84;80.10;97687.25;6158662;23;20028;-82
2021/12/02 18:30:48;;;;;;;4.25;3.78;;;;;;;2.87;80.20;97705.25;6209221;23;20013;-83
2021/12/02 18:33:13;;;;;;;5.70;4.30;;;;;;;2.80;80.38;97695.81;6185248;23;20008;-82
2021/12/02 18:35:39;;;;;;;6.65;4.68;;;;;;;2.71;80.09;97695.34;6160557;23;20017;-83
2021/12/02 18:38:05;;;;;;;3.90;3.58;;;;;;;2.70;80.62;97700.84;6184855;23;20052;-82
2021/12/02 18:40:32;;;;;;;5.45;4.13;;;;;;;2.78;80.28;97735.56;6186730;23;20032;-83
2021/12/02 18:43:00;;;;;;;5.15;4.55;;;;;;;2.63;80.49;97722.03;6134884;23;20100;-83
2021/12/02 18:45:25;;;;;;;6.10;4.50;;;;;;;2.60;79.81;97729.59;6159012;23;20024;-84
2021/12/02 18:47:52;;;;;;;8.18;5.40;;;;;;;2.74;80.31;97755.50;6214342;23;20009;-83
2021/12/02 18:50:18;;;;;;;6.63;5.32;;;;;;;2.63;80.32;97743.09;6188234;23;20016;-83
2021/12/02 18:52:45;;;;;;;7.32;5.75;;;;;;;2.68;79.93;97747.69;6188149;23;20051;-83
2021/12/02 18:55:11;;;;;;;6.28;5.28;;;;;;;2.60;80.46;97740.13;6158218;23;20351;-83
2021/12/02 18:57:37;;;;;;;7.85;5.95;;;;;;;2.50;79.74;97722.22;6157885;23;20381;-83
2021/12/02 19:00:14;;;;;;;9.43;6.20;;;;;;;2.64;80.50;97763.16;6184393;23;20013;-82